Structure, Texas
Current Conditions -  °F | °C
As of 2:35 AM on Thursday 27 Nov 2014 (Local Time) from KEDC Reporting Station
Clear Clear  
Wind Chill: 42°   Ceiling: Unl
Heat Index: 46°   Visibility: 10mi
Dew Point: 37°   Wind: 9mph
Humidity: 71%   Direction: 360°N
Pressure: 30.4"   Gusts: NA
Location:  30.2988°N, 97.3874°W
Report Text: KEDC 270835Z AUTO 36008KT 10SM CLR 08/03 A3040 RMK AO2
Loading
Personal Weather Stations






























Interactive Weather Map New forecast layout! Learn more

10-Day Weather Forecast

Advertisements
Track Severe Weather on mobile